createdAt,value
2023-05-06T00:00:06.538Z,2.75
2023-05-06T00:02:33.807Z,2.65
2023-05-06T00:05:00.992Z,2.38
2023-05-06T00:07:28.085Z,2.47
2023-05-06T00:09:55.329Z,2.78
2023-05-06T00:12:22.395Z,2.15
2023-05-06T00:14:49.474Z,2.25
2023-05-06T00:17:16.737Z,1.95
2023-05-06T00:19:44.415Z,2.47
2023-05-06T00:22:11.595Z,2.13
2023-05-06T00:24:38.735Z,2.47
2023-05-06T00:27:05.850Z,2.20
2023-05-06T00:29:32.941Z,2.50
2023-05-06T00:32:00.225Z,2.40
2023-05-06T00:34:27.800Z,2.20
2023-05-06T00:36:54.908Z,2.47
2023-05-06T00:39:22.365Z,2.30
2023-05-06T00:41:49.474Z,2.10
2023-05-06T00:44:16.529Z,1.80
2023-05-06T00:46:43.981Z,2.08
2023-05-06T00:49:13.204Z,1.92
2023-05-06T00:51:40.370Z,2.00
2023-05-06T00:54:07.562Z,2.38
2023-05-06T00:56:34.658Z,2.13
2023-05-06T00:59:01.770Z,2.63
2023-05-06T01:01:31.125Z,2.03
2023-05-06T01:03:58.759Z,1.88
2023-05-06T01:06:31.914Z,2.42
2023-05-06T01:09:06.171Z,2.40
2023-05-06T01:11:39.311Z,2.20
2023-05-06T01:14:09.625Z,2.00
2023-05-06T01:16:39.440Z,2.00
2023-05-06T01:19:09.607Z,2.20
2023-05-06T01:21:37.929Z,2.47
2023-05-06T01:24:05.231Z,2.13
2023-05-06T01:26:32.450Z,2.40
2023-05-06T01:29:01.952Z,2.20
2023-05-06T01:31:35.456Z,1.88
2023-05-06T01:34:02.562Z,1.80
2023-05-06T01:36:38.914Z,2.03
2023-05-06T01:39:18.961Z,1.80
2023-05-06T01:41:48.426Z,2.20
2023-05-06T01:44:16.233Z,2.20
2023-05-06T01:46:44.870Z,2.03
2023-05-06T01:49:12.165Z,1.85
2023-05-06T01:51:39.414Z,2.03
2023-05-06T01:54:06.609Z,1.73
2023-05-06T01:56:33.699Z,1.70
2023-05-06T01:59:00.920Z,2.00
2023-05-06T02:01:28.091Z,1.80
2023-05-06T02:03:55.728Z,1.67
2023-05-06T02:06:22.932Z,1.88
2023-05-06T02:08:50.052Z,1.60
2023-05-06T02:11:17.185Z,1.98
2023-05-06T02:13:44.225Z,2.20
2023-05-06T02:16:11.541Z,2.13
2023-05-06T02:18:38.793Z,1.98
2023-05-06T02:21:05.874Z,1.73
2023-05-06T02:23:33.033Z,1.90
2023-05-06T02:26:00.194Z,2.10
2023-05-06T02:28:27.297Z,1.90
2023-05-06T02:30:57.680Z,2.03
2023-05-06T02:33:25.004Z,1.98
2023-05-06T02:35:52.121Z,2.00
2023-05-06T02:38:19.675Z,1.88
2023-05-06T02:40:46.910Z,1.90
2023-05-06T02:43:13.953Z,1.90
2023-05-06T02:45:41.138Z,1.80
2023-05-06T02:48:08.350Z,1.83
2023-05-06T02:50:36.248Z,1.77
2023-05-06T02:53:03.383Z,1.60
2023-05-06T02:55:30.622Z,1.70
2023-05-06T02:57:57.704Z,1.73
2023-05-06T03:00:24.847Z,1.77
2023-05-06T03:02:52.062Z,1.77
2023-05-06T03:05:19.354Z,1.40
2023-05-06T03:07:46.478Z,1.60
2023-05-06T03:10:13.607Z,1.52
2023-05-06T03:12:40.704Z,1.67
2023-05-06T03:15:08.216Z,2.08
2023-05-06T03:17:36.060Z,1.60
2023-05-06T03:20:03.716Z,1.77
2023-05-06T03:22:30.777Z,1.98
2023-05-06T03:24:57.896Z,1.70
2023-05-06T03:27:24.987Z,1.80
2023-05-06T03:29:52.096Z,1.83
2023-05-06T03:32:19.204Z,1.92
2023-05-06T03:34:46.256Z,1.77
2023-05-06T03:37:13.350Z,2.83
2023-05-06T03:39:40.510Z,2.03
2023-05-06T03:42:09.250Z,1.50
2023-05-06T03:44:36.912Z,1.85
2023-05-06T03:47:04.042Z,1.77
2023-05-06T03:49:31.117Z,1.83
2023-05-06T03:51:58.224Z,1.90
2023-05-06T03:54:25.471Z,1.40
2023-05-06T03:56:52.520Z,2.30
2023-05-06T03:59:19.610Z,1.80
2023-05-06T04:01:46.823Z,1.52
2023-05-06T04:04:14.025Z,1.55
2023-05-06T04:06:41.248Z,1.98
2023-05-06T04:09:08.351Z,1.83
2023-05-06T04:11:36.386Z,1.40
2023-05-06T04:14:03.472Z,2.00
2023-05-06T04:16:30.689Z,1.50
2023-05-06T04:18:58.323Z,2.78
2023-05-06T04:21:25.433Z,1.63
2023-05-06T04:23:52.636Z,1.90
2023-05-06T04:26:19.705Z,2.00
2023-05-06T04:28:46.789Z,1.95
2023-05-06T04:31:14.687Z,1.80
2023-05-06T04:33:41.970Z,1.90
2023-05-06T04:36:09.418Z,1.80
2023-05-06T04:38:37.562Z,2.08
2023-05-06T04:41:05.361Z,1.70
2023-05-06T04:43:32.827Z,1.88
2023-05-06T04:46:00.309Z,1.70
2023-05-06T04:48:27.533Z,1.70
2023-05-06T04:50:54.712Z,1.92
2023-05-06T04:53:21.908Z,1.73
2023-05-06T04:55:49.004Z,1.85
2023-05-06T04:58:16.196Z,2.03
2023-05-06T05:00:43.544Z,1.77
2023-05-06T05:03:10.846Z,1.65
2023-05-06T05:05:37.938Z,3.88
2023-05-06T05:08:05.195Z,2.00
2023-05-06T05:10:32.401Z,1.75
2023-05-06T05:12:59.505Z,1.98
2023-05-06T05:15:26.667Z,1.70
2023-05-06T05:17:53.793Z,1.60
2023-05-06T05:20:20.914Z,1.73
2023-05-06T05:22:48.102Z,1.90
2023-05-06T05:25:15.153Z,1.83
2023-05-06T05:27:43.044Z,1.80
2023-05-06T05:30:10.423Z,1.85
2023-05-06T05:32:37.650Z,2.15
2023-05-06T05:35:04.914Z,1.73
2023-05-06T05:37:32.184Z,1.52
2023-05-06T05:39:59.342Z,1.80
2023-05-06T05:42:26.686Z,2.20
2023-05-06T05:44:53.769Z,1.95
2023-05-06T05:47:20.873Z,1.80
2023-05-06T05:49:47.958Z,1.83
2023-05-06T05:52:15.810Z,1.80
2023-05-06T05:54:42.895Z,1.63
2023-05-06T05:57:09.969Z,1.80
2023-05-06T05:59:37.593Z,1.48
2023-05-06T06:02:05.096Z,1.60
2023-05-06T06:04:32.391Z,1.70
2023-05-06T06:07:01.746Z,1.67
2023-05-06T06:09:28.814Z,1.52
2023-05-06T06:11:55.988Z,1.80
2023-05-06T06:14:23.243Z,1.98
2023-05-06T06:16:50.405Z,1.67
2023-05-06T06:19:17.902Z,1.70
2023-05-06T06:21:45.027Z,1.70
2023-05-06T06:24:12.882Z,2.15
2023-05-06T06:26:39.949Z,1.73
2023-05-06T06:29:07.094Z,1.40
2023-05-06T06:31:34.862Z,1.48
2023-05-06T06:34:06.300Z,1.60
2023-05-06T06:36:33.708Z,1.60
2023-05-06T06:39:00.815Z,1.75
2023-05-06T06:41:28.155Z,1.88
2023-05-06T06:43:55.899Z,1.50
2023-05-06T06:46:23.322Z,1.90
2023-05-06T06:48:50.789Z,1.70
2023-05-06T06:51:17.933Z,1.80
2023-05-06T06:53:45.134Z,1.60
2023-05-06T06:56:12.502Z,1.50
2023-05-06T06:58:39.645Z,1.90
2023-05-06T07:01:06.800Z,1.85
2023-05-06T07:03:33.902Z,1.77
2023-05-06T07:06:01.246Z,1.95
2023-05-06T07:08:28.319Z,1.63
2023-05-06T07:10:55.554Z,1.75
2023-05-06T07:13:26.001Z,1.75
2023-05-06T07:15:53.081Z,1.80
2023-05-06T07:18:20.336Z,1.50
2023-05-06T07:20:47.521Z,1.90
2023-05-06T07:23:14.591Z,1.70
2023-05-06T07:25:41.686Z,1.60
2023-05-06T07:28:08.825Z,1.60
2023-05-06T07:30:38.388Z,1.77
2023-05-06T07:33:05.726Z,1.80
2023-05-06T07:35:32.997Z,1.60
2023-05-06T07:38:00.098Z,1.80
2023-05-06T07:40:27.251Z,1.60
2023-05-06T07:42:54.412Z,1.65
2023-05-06T07:45:23.486Z,1.75
2023-05-06T07:47:50.773Z,1.60
2023-05-06T07:50:17.969Z,1.60
2023-05-06T07:52:45.079Z,1.90
2023-05-06T07:55:12.565Z,1.63
2023-05-06T07:57:39.845Z,1.75
2023-05-06T08:00:07.509Z,1.65
2023-05-06T08:02:34.658Z,1.67
2023-05-06T08:05:01.886Z,1.92
2023-05-06T08:07:28.954Z,1.95
2023-05-06T08:09:56.553Z,1.85
2023-05-06T08:12:23.711Z,1.98
2023-05-06T08:14:50.859Z,1.73
2023-05-06T08:17:18.430Z,1.73
2023-05-06T08:19:45.574Z,1.60
2023-05-06T08:22:12.719Z,1.80
2023-05-06T08:24:39.769Z,1.70
2023-05-06T08:27:07.109Z,1.60
2023-05-06T08:29:34.246Z,1.80
2023-05-06T08:32:01.582Z,1.50
2023-05-06T08:34:28.774Z,1.80
2023-05-06T08:36:56.756Z,2.15
2023-05-06T08:39:23.800Z,1.65
2023-05-06T08:41:52.991Z,1.83
2023-05-06T08:44:20.904Z,1.73
2023-05-06T08:46:48.199Z,1.70
2023-05-06T08:49:15.821Z,1.77
2023-05-06T08:51:44.242Z,1.65
2023-05-06T08:54:12.384Z,1.65
2023-05-06T08:56:40.827Z,1.40
2023-05-06T08:59:09.279Z,1.80
2023-05-06T09:01:36.853Z,1.70
2023-05-06T09:04:04.442Z,1.70
2023-05-06T09:06:31.537Z,1.80
2023-05-06T09:08:58.626Z,2.10
2023-05-06T09:11:27.023Z,1.52
2023-05-06T09:14:13.471Z,1.67
2023-05-06T09:16:42.340Z,1.50
2023-05-06T09:19:09.525Z,1.63
2023-05-06T09:21:37.699Z,1.70
2023-05-06T09:24:06.219Z,1.52
2023-05-06T09:26:34.487Z,1.85
2023-05-06T09:29:01.810Z,1.52
2023-05-06T09:31:29.892Z,1.55
2023-05-06T09:33:57.762Z,1.65
2023-05-06T09:36:25.749Z,2.05
2023-05-06T09:38:54.049Z,1.40
2023-05-06T09:41:22.821Z,2.22
2023-05-06T09:43:51.134Z,1.85
2023-05-06T09:46:18.420Z,1.90
2023-05-06T09:48:46.776Z,1.80
2023-05-06T09:51:13.960Z,1.63
2023-05-06T09:53:41.734Z,1.70
2023-05-06T09:56:09.439Z,1.75
2023-05-06T09:58:37.135Z,1.98
2023-05-06T10:01:05.880Z,1.77
2023-05-06T10:03:33.574Z,1.80
2023-05-06T10:06:05.934Z,1.60
2023-05-06T10:08:35.050Z,1.50
2023-05-06T10:11:02.460Z,1.63
2023-05-06T10:13:30.498Z,1.50
2023-05-06T10:15:57.915Z,1.60
2023-05-06T10:18:27.196Z,1.50
2023-05-06T10:20:55.317Z,1.50
2023-05-06T10:23:26.914Z,1.60
2023-05-06T10:25:57.517Z,1.65
2023-05-06T10:28:30.558Z,1.60
2023-05-06T10:30:58.929Z,1.90
2023-05-06T10:33:26.974Z,2.15
2023-05-06T10:35:54.103Z,1.90
2023-05-06T10:38:27.390Z,1.55
2023-05-06T10:40:55.323Z,2.40
2023-05-06T10:43:32.236Z,2.15
2023-05-06T10:46:12.653Z,1.90
2023-05-06T10:48:58.564Z,2.00
2023-05-06T10:51:27.160Z,2.05
2023-05-06T10:54:03.788Z,4.22
2023-05-06T10:56:32.404Z,1.63
2023-05-06T10:59:05.747Z,1.55
2023-05-06T11:01:32.938Z,1.30
2023-05-06T11:04:05.083Z,1.48
2023-05-06T11:06:34.160Z,1.55
2023-05-06T11:09:01.874Z,1.40
2023-05-06T11:11:47.538Z,1.80
2023-05-06T11:14:15.564Z,2.00
2023-05-06T11:16:49.373Z,1.95
2023-05-06T11:19:22.947Z,1.80
2023-05-06T11:21:50.831Z,1.67
2023-05-06T11:24:44.468Z,1.70
2023-05-06T11:27:12.561Z,1.50
2023-05-06T11:29:39.672Z,2.05
2023-05-06T11:32:08.416Z,2.38
2023-05-06T11:34:36.782Z,1.75
2023-05-06T11:37:08.341Z,1.88
2023-05-06T11:39:40.549Z,1.88
2023-05-06T11:42:09.150Z,2.50
2023-05-06T11:44:37.293Z,2.17
2023-05-06T11:47:05.893Z,1.92
2023-05-06T11:49:37.672Z,1.80
2023-05-06T11:52:05.024Z,2.25
2023-05-06T11:54:34.788Z,2.63
2023-05-06T11:57:02.054Z,2.50
2023-05-06T11:59:30.460Z,3.15
2023-05-06T12:01:58.593Z,3.35
2023-05-06T12:04:25.764Z,3.65
2023-05-06T12:06:55.319Z,3.78
2023-05-06T12:09:22.658Z,3.30
2023-05-06T12:11:49.991Z,3.17
2023-05-06T12:14:17.253Z,2.88
2023-05-06T12:16:44.387Z,2.80
2023-05-06T12:19:11.589Z,3.22
2023-05-06T12:21:39.456Z,2.63
2023-05-06T12:24:07.015Z,2.30
2023-05-06T12:26:47.429Z,2.25
2023-05-06T12:29:18.001Z,2.47
2023-05-06T12:31:47.370Z,2.25
2023-05-06T12:34:16.218Z,2.88
2023-05-06T12:36:44.320Z,2.65
2023-05-06T12:39:11.788Z,2.20
2023-05-06T12:41:40.501Z,2.28
2023-05-06T12:44:37.031Z,2.47
2023-05-06T12:47:05.493Z,2.67
2023-05-06T12:50:04.645Z,2.40
2023-05-06T12:52:31.930Z,1.90
2023-05-06T12:55:01.336Z,2.10
2023-05-06T12:57:28.423Z,2.10
2023-05-06T12:59:56.506Z,1.83
2023-05-06T13:02:23.862Z,1.80
2023-05-06T13:04:51.125Z,1.67
2023-05-06T13:07:18.264Z,1.60
2023-05-06T13:09:45.505Z,2.00
2023-05-06T13:12:13.074Z,1.80
2023-05-06T13:14:40.552Z,1.80
2023-05-06T13:17:07.890Z,1.60
2023-05-06T13:19:35.061Z,1.58
2023-05-06T13:22:02.769Z,1.50
2023-05-06T13:24:30.743Z,1.52
2023-05-06T13:26:59.811Z,1.55
2023-05-06T13:29:27.352Z,1.27
2023-05-06T13:31:54.578Z,1.50
2023-05-06T13:34:21.783Z,1.40
2023-05-06T13:36:49.657Z,1.80
2023-05-06T13:39:17.136Z,3.35
2023-05-06T13:41:52.979Z,2.15
2023-05-06T13:44:20.487Z,1.23
2023-05-06T13:46:48.332Z,1.20
2023-05-06T13:49:15.663Z,1.30
2023-05-06T13:51:42.785Z,1.30
2023-05-06T13:54:10.169Z,1.55
2023-05-06T13:56:37.351Z,1.42
2023-05-06T13:59:04.466Z,1.65
2023-05-06T14:01:31.608Z,1.42
2023-05-06T14:03:58.716Z,1.40
2023-05-06T14:06:25.777Z,1.52
2023-05-06T14:08:52.933Z,1.27
2023-05-06T14:11:20.066Z,1.30
2023-05-06T14:13:47.127Z,1.63
2023-05-06T14:16:14.245Z,1.50
2023-05-06T14:18:41.597Z,1.40
2023-05-06T14:21:08.972Z,2.90
2023-05-06T14:23:36.606Z,1.70
2023-05-06T14:26:03.722Z,1.60
2023-05-06T14:28:30.779Z,1.30
2023-05-06T14:30:58.260Z,1.58
2023-05-06T14:33:25.591Z,1.63
2023-05-06T14:35:52.836Z,1.50
2023-05-06T14:38:20.022Z,1.60
2023-05-06T14:40:47.226Z,1.63
2023-05-06T14:43:14.307Z,1.77
2023-05-06T14:45:41.445Z,1.90
2023-05-06T14:48:08.788Z,1.67
2023-05-06T14:50:35.923Z,1.63
2023-05-06T14:53:04.124Z,1.63
2023-05-06T14:55:31.479Z,1.60
2023-05-06T14:57:58.520Z,1.58
2023-05-06T15:00:25.700Z,1.77
2023-05-06T15:02:52.865Z,2.00
2023-05-06T15:05:20.008Z,1.60
2023-05-06T15:07:47.111Z,1.60
2023-05-06T15:10:14.273Z,1.77
2023-05-06T15:12:41.379Z,1.77
2023-05-06T15:15:08.969Z,1.75
2023-05-06T15:17:36.413Z,1.42
2023-05-06T15:20:04.482Z,1.60
2023-05-06T15:22:31.607Z,1.70
2023-05-06T15:24:58.826Z,2.10
2023-05-06T15:27:25.925Z,1.98
2023-05-06T15:29:53.044Z,1.77
2023-05-06T15:32:20.317Z,1.52
2023-05-06T15:34:47.418Z,1.60
2023-05-06T15:37:19.126Z,2.00
2023-05-06T15:39:47.984Z,1.60
2023-05-06T15:42:15.081Z,1.80
2023-05-06T15:44:42.224Z,1.60
2023-05-06T15:47:09.328Z,1.80
2023-05-06T15:49:51.544Z,2.03
2023-05-06T15:52:22.693Z,2.70
2023-05-06T15:54:50.304Z,1.85
2023-05-06T15:57:17.786Z,1.70
2023-05-06T15:59:44.932Z,1.85
2023-05-06T16:02:26.969Z,1.70
2023-05-06T16:04:55.020Z,2.00
2023-05-06T16:07:22.374Z,1.70
2023-05-06T16:09:50.170Z,1.95
2023-05-06T16:12:17.326Z,1.50
2023-05-06T16:14:44.950Z,1.63
2023-05-06T16:17:12.038Z,1.80
2023-05-06T16:19:39.292Z,1.50
2023-05-06T16:22:06.400Z,2.22
2023-05-06T16:24:33.431Z,1.85
2023-05-06T16:27:01.035Z,1.90
2023-05-06T16:29:28.161Z,1.98
2023-05-06T16:31:55.443Z,1.70
2023-05-06T16:34:22.677Z,1.85
2023-05-06T16:36:50.446Z,1.90
2023-05-06T16:39:17.532Z,1.50
2023-05-06T16:41:44.682Z,1.65
2023-05-06T16:44:11.812Z,1.55
2023-05-06T16:46:38.921Z,1.50
2023-05-06T16:49:06.183Z,1.73
2023-05-06T16:51:33.347Z,1.50
2023-05-06T16:54:00.631Z,1.90
2023-05-06T16:56:36.786Z,1.45
2023-05-06T16:59:11.501Z,1.58
2023-05-06T17:01:38.612Z,1.77
2023-05-06T17:04:05.834Z,1.90
2023-05-06T17:06:33.020Z,1.60
2023-05-06T17:09:00.414Z,1.65
2023-05-06T17:11:27.493Z,1.60
2023-05-06T17:13:54.833Z,2.03
2023-05-06T17:16:22.446Z,1.70
2023-05-06T17:18:49.557Z,1.58
2023-05-06T17:21:16.772Z,1.63
2023-05-06T17:23:44.183Z,1.50
2023-05-06T17:26:11.237Z,1.92
2023-05-06T17:28:38.335Z,1.40
2023-05-06T17:31:05.664Z,1.60
2023-05-06T17:33:32.796Z,1.85
2023-05-06T17:35:59.979Z,1.58
2023-05-06T17:38:27.206Z,1.73
2023-05-06T17:40:54.362Z,1.40
2023-05-06T17:43:21.439Z,1.58
2023-05-06T17:45:48.673Z,1.70
2023-05-06T17:48:15.820Z,1.63
2023-05-06T17:50:42.883Z,1.42
2023-05-06T17:53:10.067Z,1.80
2023-05-06T17:55:37.180Z,1.67
2023-05-06T17:58:04.252Z,1.45
2023-05-06T18:00:31.373Z,2.03
2023-05-06T18:02:58.529Z,1.75
2023-05-06T18:05:26.351Z,1.30
2023-05-06T18:07:53.680Z,1.40
2023-05-06T18:10:20.820Z,1.60
2023-05-06T18:12:48.035Z,1.55
2023-05-06T18:15:15.192Z,2.00
2023-05-06T18:17:42.323Z,1.77
2023-05-06T18:20:10.262Z,1.58
2023-05-06T18:22:39.138Z,1.25
2023-05-06T18:25:07.125Z,3.70
2023-05-06T18:27:34.218Z,1.92
2023-05-06T18:30:01.451Z,1.42
2023-05-06T18:32:28.610Z,1.85
2023-05-06T18:34:55.749Z,1.25
2023-05-06T18:37:22.887Z,1.70
2023-05-06T18:39:50.225Z,1.60
2023-05-06T18:42:17.301Z,1.85
2023-05-06T18:44:44.467Z,2.08
2023-05-06T18:47:11.557Z,2.15
2023-05-06T18:49:38.802Z,2.30
2023-05-06T18:52:06.002Z,2.38
2023-05-06T18:54:33.178Z,1.77
2023-05-06T18:57:01.160Z,2.10
2023-05-06T18:59:28.616Z,2.50
2023-05-06T19:01:55.815Z,2.20
2023-05-06T19:04:22.921Z,2.85
2023-05-06T19:06:51.738Z,1.92
2023-05-06T19:09:19.045Z,2.20
2023-05-06T19:11:46.164Z,2.03
2023-05-06T19:14:13.294Z,1.90
2023-05-06T19:16:40.561Z,1.73
2023-05-06T19:19:07.712Z,2.45
2023-05-06T19:21:35.561Z,1.92
2023-05-06T19:24:02.669Z,2.20
2023-05-06T19:26:29.765Z,2.15
2023-05-06T19:28:56.892Z,1.98
2023-05-06T19:31:24.036Z,2.25
2023-05-06T19:33:51.195Z,2.17
2023-05-06T19:36:18.358Z,2.00
2023-05-06T19:38:45.472Z,1.92
2023-05-06T19:41:13.151Z,2.30
2023-05-06T19:43:43.770Z,2.47
2023-05-06T19:46:13.817Z,2.67
2023-05-06T19:48:41.004Z,3.00
2023-05-06T19:51:08.227Z,2.42
2023-05-06T19:53:36.484Z,2.13
2023-05-06T19:56:10.266Z,2.65
2023-05-06T19:58:37.403Z,2.90
2023-05-06T20:01:04.619Z,2.40
2023-05-06T20:03:32.042Z,2.85
2023-05-06T20:05:59.662Z,3.17
2023-05-06T20:08:26.906Z,2.83
2023-05-06T20:10:54.098Z,2.83
2023-05-06T20:13:21.413Z,3.00
2023-05-06T20:15:48.751Z,3.55
2023-05-06T20:18:16.207Z,3.10
2023-05-06T20:20:43.468Z,2.95
2023-05-06T20:23:10.597Z,3.10
2023-05-06T20:25:37.691Z,3.10
2023-05-06T20:28:08.062Z,3.15
2023-05-06T20:30:35.353Z,3.03
2023-05-06T20:33:02.663Z,2.78
2023-05-06T20:35:29.849Z,3.30
2023-05-06T20:37:56.961Z,3.38
2023-05-06T20:40:24.135Z,3.20
2023-05-06T20:42:51.270Z,3.58
2023-05-06T20:45:18.418Z,4.03
2023-05-06T20:47:45.694Z,3.03
2023-05-06T20:50:16.874Z,3.30
2023-05-06T20:52:45.643Z,3.58
2023-05-06T20:55:14.728Z,3.70
2023-05-06T20:57:45.276Z,3.33
2023-05-06T21:00:12.592Z,3.50
2023-05-06T21:02:41.715Z,3.20
2023-05-06T21:05:09.541Z,3.13
2023-05-06T21:07:36.890Z,3.38
2023-05-06T21:10:05.908Z,3.95
2023-05-06T21:12:33.578Z,3.42
2023-05-06T21:15:00.805Z,3.70
2023-05-06T21:17:28.330Z,3.88
2023-05-06T21:19:55.520Z,3.63
2023-05-06T21:22:23.311Z,3.20
2023-05-06T21:24:51.086Z,3.45
2023-05-06T21:27:18.218Z,3.22
2023-05-06T21:29:45.418Z,3.53
2023-05-06T21:32:12.646Z,3.70
2023-05-06T21:34:39.761Z,3.60
2023-05-06T21:37:06.926Z,3.55
2023-05-06T21:39:34.040Z,3.42
2023-05-06T21:42:01.275Z,3.13
2023-05-06T21:44:28.357Z,3.40
2023-05-06T21:46:55.650Z,3.72
2023-05-06T21:49:22.791Z,3.88
2023-05-06T21:51:49.948Z,3.58
2023-05-06T21:54:17.483Z,3.00
2023-05-06T21:56:44.618Z,3.03
2023-05-06T21:59:11.723Z,3.25
2023-05-06T22:01:39.508Z,3.40
2023-05-06T22:04:11.501Z,2.80
2023-05-06T22:06:38.994Z,2.72
2023-05-06T22:09:09.489Z,2.92
2023-05-06T22:11:38.114Z,2.75
2023-05-06T22:14:06.392Z,2.70
2023-05-06T22:16:38.030Z,2.80
2023-05-06T22:19:06.120Z,2.53
2023-05-06T22:21:34.471Z,3.53
2023-05-06T22:24:01.773Z,2.63
2023-05-06T22:26:29.017Z,2.88
2023-05-06T22:28:56.463Z,2.95
2023-05-06T22:31:24.915Z,2.78
2023-05-06T22:33:55.253Z,2.70
2023-05-06T22:36:22.611Z,2.37
2023-05-06T22:38:49.861Z,2.70
2023-05-06T22:41:18.429Z,3.00
2023-05-06T22:43:45.677Z,2.67
2023-05-06T22:46:12.975Z,3.00
2023-05-06T22:48:40.520Z,3.00
2023-05-06T22:51:07.795Z,2.60
2023-05-06T22:53:34.920Z,3.20
2023-05-06T22:56:02.013Z,3.00
2023-05-06T22:58:29.157Z,2.55
2023-05-06T23:00:56.556Z,2.90
2023-05-06T23:03:23.749Z,2.83
2023-05-06T23:05:51.072Z,3.05
2023-05-06T23:08:18.172Z,2.75
2023-05-06T23:10:45.516Z,2.58
2023-05-06T23:13:12.666Z,3.00
2023-05-06T23:15:40.190Z,2.90
2023-05-06T23:18:07.440Z,2.60
2023-05-06T23:20:34.545Z,2.83
2023-05-06T23:23:01.654Z,2.53
2023-05-06T23:25:28.709Z,2.97
2023-05-06T23:27:56.183Z,2.72
2023-05-06T23:30:23.372Z,2.97
2023-05-06T23:32:50.513Z,2.95
2023-05-06T23:35:17.675Z,3.92
2023-05-06T23:37:44.864Z,3.00
2023-05-06T23:40:13.853Z,3.28
2023-05-06T23:42:41.485Z,2.38
2023-05-06T23:45:09.347Z,2.42
2023-05-06T23:47:36.712Z,3.40
2023-05-06T23:50:03.902Z,2.72
2023-05-06T23:52:31.328Z,3.10
2023-05-06T23:54:58.382Z,2.78
2023-05-06T23:57:25.490Z,2.83
2023-05-06T23:59:52.737Z,2.65
